sensor_id;sensor_type;location;lat;lon;timestamp;P1;durP1;ratioP1;P2;durP2;ratioP2
67065;SDS011;53978;43.846;25.952;2023-04-25T00:00:28;3.97;;;3.10;;
67065;SDS011;53978;43.846;25.952;2023-04-25T00:02:54;2.85;;;2.63;;
67065;SDS011;53978;43.846;25.952;2023-04-25T00:05:21;4.68;;;2.70;;
67065;SDS011;53978;43.846;25.952;2023-04-25T00:07:48;2.88;;;2.58;;
67065;SDS011;53978;43.846;25.952;2023-04-25T00:10:14;3.38;;;2.75;;
67065;SDS011;53978;43.846;25.952;2023-04-25T00:12:40;3.63;;;2.35;;
67065;SDS011;53978;43.846;25.952;2023-04-25T00:15:06;2.78;;;2.45;;
67065;SDS011;53978;43.846;25.952;2023-04-25T00:17:32;3.22;;;2.40;;
67065;SDS011;53978;43.846;25.952;2023-04-25T00:19:57;4.22;;;2.47;;
67065;SDS011;53978;43.846;25.952;2023-04-25T00:22:25;2.47;;;2.20;;
67065;SDS011;53978;43.846;25.952;2023-04-25T00:24:51;3.17;;;2.38;;
67065;SDS011;53978;43.846;25.952;2023-04-25T00:27:18;2.38;;;2.17;;
67065;SDS011;53978;43.846;25.952;2023-04-25T00:29:43;2.30;;;2.10;;
67065;SDS011;53978;43.846;25.952;2023-04-25T00:32:09;3.13;;;2.22;;
67065;SDS011;53978;43.846;25.952;2023-04-25T00:34:35;3.88;;;2.30;;
67065;SDS011;53978;43.846;25.952;2023-04-25T00:37:01;2.72;;;2.40;;
67065;SDS011;53978;43.846;25.952;2023-04-25T00:39:29;2.33;;;2.13;;
67065;SDS011;53978;43.846;25.952;2023-04-25T00:41:54;2.40;;;2.20;;
67065;SDS011;53978;43.846;25.952;2023-04-25T00:44:20;3.05;;;2.10;;
67065;SDS011;53978;43.846;25.952;2023-04-25T00:46:47;2.40;;;2.13;;
67065;SDS011;53978;43.846;25.952;2023-04-25T00:49:14;2.42;;;2.17;;
67065;SDS011;53978;43.846;25.952;2023-04-25T00:51:41;3.67;;;2.13;;
67065;SDS011;53978;43.846;25.952;2023-04-25T00:54:09;3.47;;;2.60;;
67065;SDS011;53978;43.846;25.952;2023-04-25T00:56:34;2.50;;;2.13;;
67065;SDS011;53978;43.846;25.952;2023-04-25T00:59:00;4.25;;;2.67;;
67065;SDS011;53978;43.846;25.952;2023-04-25T01:01:28;3.97;;;2.42;;
67065;SDS011;53978;43.846;25.952;2023-04-25T01:03:53;2.63;;;2.38;;
67065;SDS011;53978;43.846;25.952;2023-04-25T01:06:19;3.63;;;2.28;;
67065;SDS011;53978;43.846;25.952;2023-04-25T01:08:47;2.75;;;2.40;;
67065;SDS011;53978;43.846;25.952;2023-04-25T01:11:12;3.47;;;2.22;;
67065;SDS011;53978;43.846;25.952;2023-04-25T01:13:37;2.90;;;2.40;;
67065;SDS011;53978;43.846;25.952;2023-04-25T01:16:03;2.92;;;2.47;;
67065;SDS011;53978;43.846;25.952;2023-04-25T01:18:29;4.15;;;2.80;;
67065;SDS011;53978;43.846;25.952;2023-04-25T01:20:54;3.00;;;2.70;;
67065;SDS011;53978;43.846;25.952;2023-04-25T01:23:21;5.40;;;2.67;;
67065;SDS011;53978;43.846;25.952;2023-04-25T01:25:50;3.65;;;2.75;;
67065;SDS011;53978;43.846;25.952;2023-04-25T01:28:16;4.88;;;2.80;;
67065;SDS011;53978;43.846;25.952;2023-04-25T01:30:41;2.95;;;2.60;;
67065;SDS011;53978;43.846;25.952;2023-04-25T01:33:08;3.90;;;2.67;;
67065;SDS011;53978;43.846;25.952;2023-04-25T01:35:33;3.47;;;2.95;;
67065;SDS011;53978;43.846;25.952;2023-04-25T01:37:59;3.33;;;2.72;;
67065;SDS011;53978;43.846;25.952;2023-04-25T01:40:25;4.47;;;2.95;;
67065;SDS011;53978;43.846;25.952;2023-04-25T01:42:52;4.10;;;2.70;;
67065;SDS011;53978;43.846;25.952;2023-04-25T01:45:23;3.30;;;2.70;;
67065;SDS011;53978;43.846;25.952;2023-04-25T01:47:49;5.00;;;2.53;;
67065;SDS011;53978;43.846;25.952;2023-04-25T01:50:16;3.80;;;2.83;;
67065;SDS011;53978;43.846;25.952;2023-04-25T01:52:42;3.53;;;2.67;;
67065;SDS011;53978;43.846;25.952;2023-04-25T01:55:08;3.42;;;2.47;;
67065;SDS011;53978;43.846;25.952;2023-04-25T01:57:33;3.45;;;2.83;;
67065;SDS011;53978;43.846;25.952;2023-04-25T02:00:00;2.72;;;2.47;;
67065;SDS011;53978;43.846;25.952;2023-04-25T02:02:27;3.10;;;2.65;;
67065;SDS011;53978;43.846;25.952;2023-04-25T02:04:53;5.03;;;2.53;;
67065;SDS011;53978;43.846;25.952;2023-04-25T02:07:19;3.03;;;2.72;;
67065;SDS011;53978;43.846;25.952;2023-04-25T02:09:45;5.53;;;2.72;;
67065;SDS011;53978;43.846;25.952;2023-04-25T02:12:10;6.30;;;2.95;;
67065;SDS011;53978;43.846;25.952;2023-04-25T02:14:36;4.20;;;2.80;;
67065;SDS011;53978;43.846;25.952;2023-04-25T02:17:01;9.30;;;2.88;;
67065;SDS011;53978;43.846;25.952;2023-04-25T02:19:27;3.92;;;3.00;;
67065;SDS011;53978;43.846;25.952;2023-04-25T02:21:52;4.07;;;3.10;;
67065;SDS011;53978;43.846;25.952;2023-04-25T02:24:18;3.42;;;3.13;;
67065;SDS011;53978;43.846;25.952;2023-04-25T02:26:43;4.93;;;3.15;;
67065;SDS011;53978;43.846;25.952;2023-04-25T02:29:09;3.58;;;2.70;;
67065;SDS011;53978;43.846;25.952;2023-04-25T02:31:35;4.85;;;2.75;;
67065;SDS011;53978;43.846;25.952;2023-04-25T02:34:00;3.30;;;2.90;;
67065;SDS011;53978;43.846;25.952;2023-04-25T02:36:30;4.13;;;2.80;;
67065;SDS011;53978;43.846;25.952;2023-04-25T02:38:59;7.75;;;3.10;;
67065;SDS011;53978;43.846;25.952;2023-04-25T02:41:25;2.92;;;2.63;;
67065;SDS011;53978;43.846;25.952;2023-04-25T02:43:51;3.17;;;2.88;;
67065;SDS011;53978;43.846;25.952;2023-04-25T02:46:16;10.27;;;2.92;;
67065;SDS011;53978;43.846;25.952;2023-04-25T02:48:42;3.40;;;2.92;;
67065;SDS011;53978;43.846;25.952;2023-04-25T02:51:09;5.35;;;3.13;;
67065;SDS011;53978;43.846;25.952;2023-04-25T02:53:35;3.40;;;2.80;;
67065;SDS011;53978;43.846;25.952;2023-04-25T02:56:00;3.60;;;3.10;;
67065;SDS011;53978;43.846;25.952;2023-04-25T02:58:26;3.63;;;2.88;;
67065;SDS011;53978;43.846;25.952;2023-04-25T03:00:52;3.15;;;2.83;;
67065;SDS011;53978;43.846;25.952;2023-04-25T03:03:17;6.07;;;2.75;;
67065;SDS011;53978;43.846;25.952;2023-04-25T03:05:43;3.42;;;2.90;;
67065;SDS011;53978;43.846;25.952;2023-04-25T03:08:10;5.28;;;3.00;;
67065;SDS011;53978;43.846;25.952;2023-04-25T03:10:35;3.88;;;2.90;;
67065;SDS011;53978;43.846;25.952;2023-04-25T03:13:00;3.60;;;3.03;;
67065;SDS011;53978;43.846;25.952;2023-04-25T03:15:26;4.03;;;3.30;;
67065;SDS011;53978;43.846;25.952;2023-04-25T03:17:54;3.88;;;3.20;;
67065;SDS011;53978;43.846;25.952;2023-04-25T03:20:19;4.72;;;3.08;;
67065;SDS011;53978;43.846;25.952;2023-04-25T03:22:45;4.82;;;3.38;;
67065;SDS011;53978;43.846;25.952;2023-04-25T03:25:10;4.30;;;3.30;;
67065;SDS011;53978;43.846;25.952;2023-04-25T03:27:35;3.88;;;3.38;;
67065;SDS011;53978;43.846;25.952;2023-04-25T03:30:01;4.93;;;3.38;;
67065;SDS011;53978;43.846;25.952;2023-04-25T03:32:26;5.40;;;3.53;;
67065;SDS011;53978;43.846;25.952;2023-04-25T03:34:52;5.45;;;3.90;;
67065;SDS011;53978;43.846;25.952;2023-04-25T03:37:17;5.25;;;3.63;;
67065;SDS011;53978;43.846;25.952;2023-04-25T03:39:42;4.97;;;3.47;;
67065;SDS011;53978;43.846;25.952;2023-04-25T03:42:08;5.22;;;3.45;;
67065;SDS011;53978;43.846;25.952;2023-04-25T03:44:33;6.30;;;3.30;;
67065;SDS011;53978;43.846;25.952;2023-04-25T03:46:59;4.13;;;3.30;;
67065;SDS011;53978;43.846;25.952;2023-04-25T03:49:24;4.30;;;3.45;;
67065;SDS011;53978;43.846;25.952;2023-04-25T03:51:50;8.10;;;3.75;;
67065;SDS011;53978;43.846;25.952;2023-04-25T03:54:15;5.95;;;3.88;;
67065;SDS011;53978;43.846;25.952;2023-04-25T03:56:40;11.15;;;3.88;;
67065;SDS011;53978;43.846;25.952;2023-04-25T03:59:06;5.53;;;3.40;;
67065;SDS011;53978;43.846;25.952;2023-04-25T04:01:32;8.68;;;3.42;;
67065;SDS011;53978;43.846;25.952;2023-04-25T04:03:58;6.75;;;3.65;;
67065;SDS011;53978;43.846;25.952;2023-04-25T04:06:23;5.88;;;3.90;;
67065;SDS011;53978;43.846;25.952;2023-04-25T04:08:49;5.82;;;3.28;;
67065;SDS011;53978;43.846;25.952;2023-04-25T04:11:14;5.60;;;3.10;;
67065;SDS011;53978;43.846;25.952;2023-04-25T04:13:39;4.13;;;3.22;;
67065;SDS011;53978;43.846;25.952;2023-04-25T04:16:05;4.97;;;3.17;;
67065;SDS011;53978;43.846;25.952;2023-04-25T04:18:31;3.83;;;3.33;;
67065;SDS011;53978;43.846;25.952;2023-04-25T04:20:58;5.13;;;3.25;;
67065;SDS011;53978;43.846;25.952;2023-04-25T04:23:23;3.78;;;3.08;;
67065;SDS011;53978;43.846;25.952;2023-04-25T04:25:49;6.00;;;3.38;;
67065;SDS011;53978;43.846;25.952;2023-04-25T04:28:14;11.98;;;4.22;;
67065;SDS011;53978;43.846;25.952;2023-04-25T04:30:43;14.07;;;4.13;;
67065;SDS011;53978;43.846;25.952;2023-04-25T04:33:11;10.55;;;3.80;;
67065;SDS011;53978;43.846;25.952;2023-04-25T04:35:37;10.55;;;3.75;;
67065;SDS011;53978;43.846;25.952;2023-04-25T04:38:04;5.63;;;3.47;;
67065;SDS011;53978;43.846;25.952;2023-04-25T04:40:30;4.40;;;3.47;;
67065;SDS011;53978;43.846;25.952;2023-04-25T04:42:56;7.88;;;3.60;;
67065;SDS011;53978;43.846;25.952;2023-04-25T04:45:22;6.68;;;4.25;;
67065;SDS011;53978;43.846;25.952;2023-04-25T04:47:48;8.23;;;4.60;;
67065;SDS011;53978;43.846;25.952;2023-04-25T04:50:16;11.05;;;4.38;;
67065;SDS011;53978;43.846;25.952;2023-04-25T04:52:47;11.25;;;4.35;;
67065;SDS011;53978;43.846;25.952;2023-04-25T04:55:12;3.75;;;3.35;;
67065;SDS011;53978;43.846;25.952;2023-04-25T04:57:37;9.50;;;3.60;;
67065;SDS011;53978;43.846;25.952;2023-04-25T05:00:04;4.25;;;3.58;;
67065;SDS011;53978;43.846;25.952;2023-04-25T05:02:35;6.07;;;3.85;;
67065;SDS011;53978;43.846;25.952;2023-04-25T05:05:00;6.07;;;3.65;;
67065;SDS011;53978;43.846;25.952;2023-04-25T05:07:26;3.92;;;3.20;;
67065;SDS011;53978;43.846;25.952;2023-04-25T05:09:51;4.70;;;3.58;;
67065;SDS011;53978;43.846;25.952;2023-04-25T05:12:17;5.97;;;3.85;;
67065;SDS011;53978;43.846;25.952;2023-04-25T05:14:42;6.65;;;3.70;;
67065;SDS011;53978;43.846;25.952;2023-04-25T05:17:07;4.82;;;4.10;;
67065;SDS011;53978;43.846;25.952;2023-04-25T05:19:33;5.18;;;4.10;;
67065;SDS011;53978;43.846;25.952;2023-04-25T05:21:59;7.45;;;4.30;;
67065;SDS011;53978;43.846;25.952;2023-04-25T05:24:25;6.53;;;4.60;;
67065;SDS011;53978;43.846;25.952;2023-04-25T05:26:50;4.80;;;3.78;;
67065;SDS011;53978;43.846;25.952;2023-04-25T05:29:15;7.20;;;3.88;;
67065;SDS011;53978;43.846;25.952;2023-04-25T05:31:41;7.35;;;4.28;;
67065;SDS011;53978;43.846;25.952;2023-04-25T05:34:09;5.32;;;4.32;;
67065;SDS011;53978;43.846;25.952;2023-04-25T05:36:35;7.55;;;4.18;;
67065;SDS011;53978;43.846;25.952;2023-04-25T05:39:00;10.88;;;3.80;;
67065;SDS011;53978;43.846;25.952;2023-04-25T05:41:25;6.05;;;3.72;;
67065;SDS011;53978;43.846;25.952;2023-04-25T05:43:51;5.97;;;4.15;;
67065;SDS011;53978;43.846;25.952;2023-04-25T05:46:22;5.97;;;3.97;;
67065;SDS011;53978;43.846;25.952;2023-04-25T05:48:47;7.57;;;3.92;;
67065;SDS011;53978;43.846;25.952;2023-04-25T05:51:13;7.63;;;3.95;;
67065;SDS011;53978;43.846;25.952;2023-04-25T05:53:41;5.70;;;3.85;;
67065;SDS011;53978;43.846;25.952;2023-04-25T05:56:07;7.70;;;4.10;;
67065;SDS011;53978;43.846;25.952;2023-04-25T05:58:33;5.78;;;4.25;;
67065;SDS011;53978;43.846;25.952;2023-04-25T06:00:58;6.25;;;4.72;;
67065;SDS011;53978;43.846;25.952;2023-04-25T06:03:24;4.53;;;4.13;;
67065;SDS011;53978;43.846;25.952;2023-04-25T06:05:49;5.53;;;4.15;;
67065;SDS011;53978;43.846;25.952;2023-04-25T06:08:15;7.88;;;4.45;;
67065;SDS011;53978;43.846;25.952;2023-04-25T06:10:40;7.45;;;4.20;;
67065;SDS011;53978;43.846;25.952;2023-04-25T06:13:06;16.90;;;6.80;;
67065;SDS011;53978;43.846;25.952;2023-04-25T06:15:31;8.55;;;5.55;;
67065;SDS011;53978;43.846;25.952;2023-04-25T06:18:00;12.45;;;5.60;;
67065;SDS011;53978;43.846;25.952;2023-04-25T06:22:59;6.80;;;4.18;;
67065;SDS011;53978;43.846;25.952;2023-04-25T06:25:25;9.73;;;5.85;;
67065;SDS011;53978;43.846;25.952;2023-04-25T06:27:50;19.77;;;9.27;;
67065;SDS011;53978;43.846;25.952;2023-04-25T06:30:16;10.13;;;6.68;;
67065;SDS011;53978;43.846;25.952;2023-04-25T06:32:43;8.32;;;5.93;;
67065;SDS011;53978;43.846;25.952;2023-04-25T06:35:08;8.25;;;5.10;;
67065;SDS011;53978;43.846;25.952;2023-04-25T06:37:35;12.70;;;5.43;;
67065;SDS011;53978;43.846;25.952;2023-04-25T06:40:00;8.18;;;5.28;;
67065;SDS011;53978;43.846;25.952;2023-04-25T06:42:25;9.65;;;6.18;;
67065;SDS011;53978;43.846;25.952;2023-04-25T06:44:51;11.63;;;6.07;;
67065;SDS011;53978;43.846;25.952;2023-04-25T06:47:16;8.52;;;5.72;;
67065;SDS011;53978;43.846;25.952;2023-04-25T06:49:42;7.18;;;5.47;;
67065;SDS011;53978;43.846;25.952;2023-04-25T06:52:07;19.80;;;7.47;;
67065;SDS011;53978;43.846;25.952;2023-04-25T06:54:33;17.05;;;7.85;;
67065;SDS011;53978;43.846;25.952;2023-04-25T06:56:58;12.68;;;7.18;;
67065;SDS011;53978;43.846;25.952;2023-04-25T06:59:25;13.75;;;6.72;;
67065;SDS011;53978;43.846;25.952;2023-04-25T07:01:51;14.18;;;8.15;;
67065;SDS011;53978;43.846;25.952;2023-04-25T07:04:16;18.55;;;9.45;;
67065;SDS011;53978;43.846;25.952;2023-04-25T07:06:42;12.32;;;7.05;;
67065;SDS011;53978;43.846;25.952;2023-04-25T07:09:08;10.43;;;6.47;;
67065;SDS011;53978;43.846;25.952;2023-04-25T07:11:34;16.02;;;7.82;;
67065;SDS011;53978;43.846;25.952;2023-04-25T07:14:00;13.05;;;7.40;;
67065;SDS011;53978;43.846;25.952;2023-04-25T07:16:26;11.65;;;7.05;;
67065;SDS011;53978;43.846;25.952;2023-04-25T07:18:51;11.73;;;7.82;;
67065;SDS011;53978;43.846;25.952;2023-04-25T07:21:17;22.45;;;10.90;;
67065;SDS011;53978;43.846;25.952;2023-04-25T07:23:42;12.55;;;7.65;;
67065;SDS011;53978;43.846;25.952;2023-04-25T07:26:07;13.45;;;8.10;;
67065;SDS011;53978;43.846;25.952;2023-04-25T07:28:33;11.77;;;7.70;;
67065;SDS011;53978;43.846;25.952;2023-04-25T07:31:06;15.55;;;8.27;;
67065;SDS011;53978;43.846;25.952;2023-04-25T07:33:31;11.77;;;8.73;;
67065;SDS011;53978;43.846;25.952;2023-04-25T07:35:57;11.68;;;7.72;;
67065;SDS011;53978;43.846;25.952;2023-04-25T07:38:22;8.95;;;6.65;;
67065;SDS011;53978;43.846;25.952;2023-04-25T07:40:48;11.18;;;6.95;;
67065;SDS011;53978;43.846;25.952;2023-04-25T07:43:14;11.68;;;8.02;;
67065;SDS011;53978;43.846;25.952;2023-04-25T07:45:44;11.73;;;7.65;;
67065;SDS011;53978;43.846;25.952;2023-04-25T07:48:09;13.20;;;8.65;;
67065;SDS011;53978;43.846;25.952;2023-04-25T07:50:35;13.23;;;8.20;;
67065;SDS011;53978;43.846;25.952;2023-04-25T07:53:01;12.18;;;7.45;;
67065;SDS011;53978;43.846;25.952;2023-04-25T07:55:29;10.27;;;6.75;;
67065;SDS011;53978;43.846;25.952;2023-04-25T07:57:54;14.40;;;7.85;;
67065;SDS011;53978;43.846;25.952;2023-04-25T08:00:20;20.27;;;8.85;;
67065;SDS011;53978;43.846;25.952;2023-04-25T08:02:45;8.48;;;6.93;;
67065;SDS011;53978;43.846;25.952;2023-04-25T08:05:11;9.60;;;6.72;;
67065;SDS011;53978;43.846;25.952;2023-04-25T08:07:40;12.50;;;7.13;;
67065;SDS011;53978;43.846;25.952;2023-04-25T08:10:06;9.93;;;7.05;;
67065;SDS011;53978;43.846;25.952;2023-04-25T08:12:32;9.55;;;6.13;;
67065;SDS011;53978;43.846;25.952;2023-04-25T08:14:58;11.88;;;7.45;;
67065;SDS011;53978;43.846;25.952;2023-04-25T08:17:23;9.65;;;6.15;;
67065;SDS011;53978;43.846;25.952;2023-04-25T08:19:49;7.68;;;5.75;;
67065;SDS011;53978;43.846;25.952;2023-04-25T08:22:14;11.75;;;5.95;;
67065;SDS011;53978;43.846;25.952;2023-04-25T08:24:40;7.38;;;5.95;;
67065;SDS011;53978;43.846;25.952;2023-04-25T08:27:06;6.70;;;5.07;;
67065;SDS011;53978;43.846;25.952;2023-04-25T08:29:32;8.40;;;5.72;;
67065;SDS011;53978;43.846;25.952;2023-04-25T08:31:58;9.60;;;5.65;;
67065;SDS011;53978;43.846;25.952;2023-04-25T08:34:23;10.70;;;5.60;;
67065;SDS011;53978;43.846;25.952;2023-04-25T08:36:49;16.45;;;5.55;;
67065;SDS011;53978;43.846;25.952;2023-04-25T08:39:14;8.02;;;5.40;;
67065;SDS011;53978;43.846;25.952;2023-04-25T08:41:40;7.40;;;5.47;;
67065;SDS011;53978;43.846;25.952;2023-04-25T08:44:06;6.43;;;5.03;;
67065;SDS011;53978;43.846;25.952;2023-04-25T08:46:37;7.55;;;4.63;;
67065;SDS011;53978;43.846;25.952;2023-04-25T08:49:05;11.25;;;4.72;;
67065;SDS011;53978;43.846;25.952;2023-04-25T08:51:33;6.47;;;5.15;;
67065;SDS011;53978;43.846;25.952;2023-04-25T08:54:09;7.18;;;5.28;;
67065;SDS011;53978;43.846;25.952;2023-04-25T08:56:37;7.60;;;5.40;;
67065;SDS011;53978;43.846;25.952;2023-04-25T08:59:03;9.48;;;5.60;;
67065;SDS011;53978;43.846;25.952;2023-04-25T09:01:31;7.70;;;5.50;;
67065;SDS011;53978;43.846;25.952;2023-04-25T09:03:57;7.70;;;5.90;;
67065;SDS011;53978;43.846;25.952;2023-04-25T09:06:23;9.00;;;6.78;;
67065;SDS011;53978;43.846;25.952;2023-04-25T09:08:49;13.45;;;6.50;;
67065;SDS011;53978;43.846;25.952;2023-04-25T09:11:15;13.60;;;8.35;;
67065;SDS011;53978;43.846;25.952;2023-04-25T09:13:40;7.60;;;5.72;;
67065;SDS011;53978;43.846;25.952;2023-04-25T09:16:06;12.73;;;6.45;;
67065;SDS011;53978;43.846;25.952;2023-04-25T09:18:32;7.65;;;5.85;;
67065;SDS011;53978;43.846;25.952;2023-04-25T09:23:30;6.43;;;4.90;;
67065;SDS011;53978;43.846;25.952;2023-04-25T09:25:58;7.50;;;5.05;;
67065;SDS011;53978;43.846;25.952;2023-04-25T09:28:24;15.75;;;5.82;;
67065;SDS011;53978;43.846;25.952;2023-04-25T09:30:54;6.55;;;5.20;;
67065;SDS011;53978;43.846;25.952;2023-04-25T09:33:20;7.07;;;5.05;;
67065;SDS011;53978;43.846;25.952;2023-04-25T09:35:45;9.80;;;6.10;;
67065;SDS011;53978;43.846;25.952;2023-04-25T09:38:11;8.85;;;5.82;;
67065;SDS011;53978;43.846;25.952;2023-04-25T09:40:41;6.82;;;4.72;;
67065;SDS011;53978;43.846;25.952;2023-04-25T09:43:08;5.30;;;4.55;;
67065;SDS011;53978;43.846;25.952;2023-04-25T09:45:43;7.47;;;5.05;;
67065;SDS011;53978;43.846;25.952;2023-04-25T09:48:10;6.45;;;4.50;;
67065;SDS011;53978;43.846;25.952;2023-04-25T09:50:37;13.68;;;6.72;;
67065;SDS011;53978;43.846;25.952;2023-04-25T09:53:05;6.32;;;5.20;;
67065;SDS011;53978;43.846;25.952;2023-04-25T09:55:34;5.72;;;4.50;;
67065;SDS011;53978;43.846;25.952;2023-04-25T09:58:01;14.38;;;4.38;;
67065;SDS011;53978;43.846;25.952;2023-04-25T10:00:30;6.40;;;4.45;;
67065;SDS011;53978;43.846;25.952;2023-04-25T10:02:56;6.70;;;4.10;;
67065;SDS011;53978;43.846;25.952;2023-04-25T10:05:22;7.35;;;4.32;;
67065;SDS011;53978;43.846;25.952;2023-04-25T10:07:49;5.72;;;4.25;;
67065;SDS011;53978;43.846;25.952;2023-04-25T10:10:16;4.60;;;3.20;;
67065;SDS011;53978;43.846;25.952;2023-04-25T10:12:41;5.07;;;2.90;;
67065;SDS011;53978;43.846;25.952;2023-04-25T10:15:08;2.83;;;2.63;;
67065;SDS011;53978;43.846;25.952;2023-04-25T10:17:34;5.65;;;2.55;;
67065;SDS011;53978;43.846;25.952;2023-04-25T10:20:03;5.70;;;2.58;;
67065;SDS011;53978;43.846;25.952;2023-04-25T10:22:34;3.53;;;2.55;;
67065;SDS011;53978;43.846;25.952;2023-04-25T10:25:06;3.30;;;1.73;;
67065;SDS011;53978;43.846;25.952;2023-04-25T10:27:33;2.20;;;1.60;;
67065;SDS011;53978;43.846;25.952;2023-04-25T10:30:13;5.68;;;2.30;;
67065;SDS011;53978;43.846;25.952;2023-04-25T10:32:43;5.97;;;1.90;;
67065;SDS011;53978;43.846;25.952;2023-04-25T10:35:10;1.67;;;1.58;;
67065;SDS011;53978;43.846;25.952;2023-04-25T10:37:36;3.83;;;1.92;;
67065;SDS011;53978;43.846;25.952;2023-04-25T10:40:08;5.22;;;1.83;;
67065;SDS011;53978;43.846;25.952;2023-04-25T10:42:35;3.97;;;1.98;;
67065;SDS011;53978;43.846;25.952;2023-04-25T10:45:09;9.80;;;2.83;;
67065;SDS011;53978;43.846;25.952;2023-04-25T10:47:35;3.03;;;1.92;;
67065;SDS011;53978;43.846;25.952;2023-04-25T10:50:05;8.35;;;2.25;;
67065;SDS011;53978;43.846;25.952;2023-04-25T10:52:32;3.97;;;2.20;;
67065;SDS011;53978;43.846;25.952;2023-04-25T10:54:58;7.55;;;2.67;;
67065;SDS011;53978;43.846;25.952;2023-04-25T11:00:14;5.43;;;3.00;;
67065;SDS011;53978;43.846;25.952;2023-04-25T11:03:01;3.22;;;2.78;;
67065;SDS011;53978;43.846;25.952;2023-04-25T11:08:02;8.23;;;2.65;;
67065;SDS011;53978;43.846;25.952;2023-04-25T11:10:32;15.23;;;4.60;;
67065;SDS011;53978;43.846;25.952;2023-04-25T11:13:00;15.20;;;2.72;;
67065;SDS011;53978;43.846;25.952;2023-04-25T11:15:26;7.20;;;2.60;;
67065;SDS011;53978;43.846;25.952;2023-04-25T11:17:53;7.30;;;3.22;;
67065;SDS011;53978;43.846;25.952;2023-04-25T11:20:19;9.55;;;3.58;;
67065;SDS011;53978;43.846;25.952;2023-04-25T11:22:45;30.80;;;4.63;;
67065;SDS011;53978;43.846;25.952;2023-04-25T11:25:11;15.32;;;3.33;;
67065;SDS011;53978;43.846;25.952;2023-04-25T11:27:53;12.70;;;2.65;;
67065;SDS011;53978;43.846;25.952;2023-04-25T11:30:21;16.13;;;2.40;;
67065;SDS011;53978;43.846;25.952;2023-04-25T11:32:47;12.25;;;2.45;;
67065;SDS011;53978;43.846;25.952;2023-04-25T11:35:12;13.30;;;2.60;;
67065;SDS011;53978;43.846;25.952;2023-04-25T11:37:39;6.75;;;2.30;;
67065;SDS011;53978;43.846;25.952;2023-04-25T11:40:05;4.13;;;2.45;;
67065;SDS011;53978;43.846;25.952;2023-04-25T11:42:31;2.50;;;2.05;;
67065;SDS011;53978;43.846;25.952;2023-04-25T11:44:58;8.77;;;2.33;;
67065;SDS011;53978;43.846;25.952;2023-04-25T11:47:28;3.65;;;2.58;;
67065;SDS011;53978;43.846;25.952;2023-04-25T11:50:00;4.38;;;2.40;;
67065;SDS011;53978;43.846;25.952;2023-04-25T11:52:39;10.07;;;3.28;;
67065;SDS011;53978;43.846;25.952;2023-04-25T11:55:06;8.13;;;3.45;;
67065;SDS011;53978;43.846;25.952;2023-04-25T11:57:32;4.50;;;2.80;;
67065;SDS011;53978;43.846;25.952;2023-04-25T12:00:08;4.15;;;2.22;;
67065;SDS011;53978;43.846;25.952;2023-04-25T12:02:36;3.53;;;2.10;;
67065;SDS011;53978;43.846;25.952;2023-04-25T12:05:04;2.90;;;2.20;;
67065;SDS011;53978;43.846;25.952;2023-04-25T12:07:34;2.60;;;2.38;;
67065;SDS011;53978;43.846;25.952;2023-04-25T12:10:03;2.35;;;2.05;;
67065;SDS011;53978;43.846;25.952;2023-04-25T12:12:36;2.42;;;2.13;;
67065;SDS011;53978;43.846;25.952;2023-04-25T12:15:08;2.20;;;2.00;;
67065;SDS011;53978;43.846;25.952;2023-04-25T12:17:40;3.15;;;2.40;;
67065;SDS011;53978;43.846;25.952;2023-04-25T12:20:07;3.00;;;2.30;;
67065;SDS011;53978;43.846;25.952;2023-04-25T12:22:33;2.30;;;2.10;;
67065;SDS011;53978;43.846;25.952;2023-04-25T12:24:59;5.40;;;2.20;;
67065;SDS011;53978;43.846;25.952;2023-04-25T12:27:25;4.18;;;1.75;;
67065;SDS011;53978;43.846;25.952;2023-04-25T12:29:52;2.20;;;1.95;;
67065;SDS011;53978;43.846;25.952;2023-04-25T12:32:18;6.00;;;2.10;;
67065;SDS011;53978;43.846;25.952;2023-04-25T12:34:44;2.55;;;1.92;;
67065;SDS011;53978;43.846;25.952;2023-04-25T12:37:10;2.20;;;2.00;;
67065;SDS011;53978;43.846;25.952;2023-04-25T12:39:35;2.80;;;2.22;;
67065;SDS011;53978;43.846;25.952;2023-04-25T12:42:00;2.45;;;1.88;;
67065;SDS011;53978;43.846;25.952;2023-04-25T12:44:26;2.33;;;1.60;;
67065;SDS011;53978;43.846;25.952;2023-04-25T12:46:51;1.80;;;1.70;;
67065;SDS011;53978;43.846;25.952;2023-04-25T12:49:17;2.25;;;1.48;;
67065;SDS011;53978;43.846;25.952;2023-04-25T12:51:43;3.58;;;1.45;;
67065;SDS011;53978;43.846;25.952;2023-04-25T12:54:08;3.35;;;1.90;;
67065;SDS011;53978;43.846;25.952;2023-04-25T12:56:35;1.67;;;1.58;;
67065;SDS011;53978;43.846;25.952;2023-04-25T12:59:01;1.65;;;1.52;;
67065;SDS011;53978;43.846;25.952;2023-04-25T13:01:28;2.10;;;1.90;;
67065;SDS011;53978;43.846;25.952;2023-04-25T13:03:53;2.97;;;2.13;;
67065;SDS011;53978;43.846;25.952;2023-04-25T13:06:20;4.30;;;2.00;;
67065;SDS011;53978;43.846;25.952;2023-04-25T13:08:45;1.90;;;1.50;;
67065;SDS011;53978;43.846;25.952;2023-04-25T13:11:11;1.83;;;1.60;;
67065;SDS011;53978;43.846;25.952;2023-04-25T13:13:36;3.30;;;2.20;;
67065;SDS011;53978;43.846;25.952;2023-04-25T13:16:02;2.08;;;1.30;;
67065;SDS011;53978;43.846;25.952;2023-04-25T13:18:31;1.83;;;1.20;;
67065;SDS011;53978;43.846;25.952;2023-04-25T13:20:56;2.22;;;1.20;;
67065;SDS011;53978;43.846;25.952;2023-04-25T13:23:23;1.80;;;0.98;;
67065;SDS011;53978;43.846;25.952;2023-04-25T13:25:52;4.28;;;1.48;;
67065;SDS011;53978;43.846;25.952;2023-04-25T13:28:17;9.82;;;1.80;;
67065;SDS011;53978;43.846;25.952;2023-04-25T13:30:43;2.13;;;1.20;;
67065;SDS011;53978;43.846;25.952;2023-04-25T13:33:09;7.45;;;1.80;;
67065;SDS011;53978;43.846;25.952;2023-04-25T13:35:35;4.70;;;1.27;;
67065;SDS011;53978;43.846;25.952;2023-04-25T13:38:01;3.65;;;1.50;;
67065;SDS011;53978;43.846;25.952;2023-04-25T13:40:27;6.60;;;1.52;;
67065;SDS011;53978;43.846;25.952;2023-04-25T13:42:55;6.13;;;1.38;;
67065;SDS011;53978;43.846;25.952;2023-04-25T13:45:21;1.20;;;1.10;;
67065;SDS011;53978;43.846;25.952;2023-04-25T13:47:46;3.83;;;1.20;;
67065;SDS011;53978;43.846;25.952;2023-04-25T13:50:12;16.75;;;2.33;;
67065;SDS011;53978;43.846;25.952;2023-04-25T13:52:38;2.92;;;1.15;;
67065;SDS011;53978;43.846;25.952;2023-04-25T13:55:04;7.63;;;1.48;;
67065;SDS011;53978;43.846;25.952;2023-04-25T13:57:31;9.70;;;2.00;;
67065;SDS011;53978;43.846;25.952;2023-04-25T13:59:57;5.18;;;1.90;;
67065;SDS011;53978;43.846;25.952;2023-04-25T14:02:22;3.72;;;1.75;;
67065;SDS011;53978;43.846;25.952;2023-04-25T14:04:48;3.28;;;1.42;;
67065;SDS011;53978;43.846;25.952;2023-04-25T14:07:14;13.35;;;1.90;;
67065;SDS011;53978;43.846;25.952;2023-04-25T14:09:42;3.22;;;1.20;;
67065;SDS011;53978;43.846;25.952;2023-04-25T14:12:08;12.45;;;1.77;;
67065;SDS011;53978;43.846;25.952;2023-04-25T14:14:33;4.13;;;1.60;;
67065;SDS011;53978;43.846;25.952;2023-04-25T14:16:59;6.47;;;1.48;;
67065;SDS011;53978;43.846;25.952;2023-04-25T14:19:25;3.97;;;1.02;;
67065;SDS011;53978;43.846;25.952;2023-04-25T14:21:50;5.00;;;1.58;;
67065;SDS011;53978;43.846;25.952;2023-04-25T14:24:15;14.65;;;1.70;;
67065;SDS011;53978;43.846;25.952;2023-04-25T14:26:44;1.55;;;1.00;;
67065;SDS011;53978;43.846;25.952;2023-04-25T14:29:10;1.50;;;0.88;;
67065;SDS011;53978;43.846;25.952;2023-04-25T14:31:37;5.85;;;1.20;;
67065;SDS011;53978;43.846;25.952;2023-04-25T14:34:12;1.20;;;1.10;;
67065;SDS011;53978;43.846;25.952;2023-04-25T14:36:37;9.68;;;2.47;;